createdAt,value
2023-04-13T00:04:37.835Z,67.38
2023-04-13T00:09:42.105Z,68.24
2023-04-13T00:14:47.029Z,68.95
2023-04-13T00:19:53.946Z,69.52
2023-04-13T00:24:58.290Z,69.55
2023-04-13T00:30:02.235Z,69.52
2023-04-13T00:35:05.795Z,70.39
2023-04-13T00:40:11.178Z,70.19
2023-04-13T00:45:17.098Z,69.62
2023-04-13T00:50:21.455Z,69.26
2023-04-13T00:55:25.764Z,65.29
2023-04-13T01:00:29.342Z,63.72
2023-04-13T01:05:43.297Z,65.16
2023-04-13T01:10:57.762Z,66.53
2023-04-13T01:16:19.650Z,67.54
2023-04-13T01:21:27.904Z,68.33
2023-04-13T01:26:38.075Z,67.33
2023-04-13T01:31:42.303Z,69.59
2023-04-13T01:36:47.821Z,70.28
2023-04-13T01:41:51.890Z,70.29
2023-04-13T01:47:14.339Z,69.48
2023-04-13T01:52:28.354Z,70.45
2023-04-13T01:57:32.416Z,69.34
2023-04-13T02:02:41.505Z,70.40
2023-04-13T02:07:46.131Z,70.08
2023-04-13T02:12:49.884Z,70.10
2023-04-13T02:17:54.966Z,69.55
2023-04-13T02:22:59.301Z,65.71
2023-04-13T02:28:03.328Z,60.51
2023-04-13T02:33:09.896Z,56.24
2023-04-13T02:38:14.261Z,52.07
2023-04-13T02:43:21.421Z,50.13
2023-04-13T02:48:25.940Z,48.82
2023-04-13T02:53:32.652Z,46.23
2023-04-13T02:58:42.064Z,44.19
2023-04-13T03:03:53.125Z,43.64
2023-04-13T03:08:59.793Z,42.99
2023-04-13T03:14:05.294Z,43.33
2023-04-13T03:19:10.608Z,42.50
2023-04-13T03:24:17.229Z,42.06
2023-04-13T03:29:22.162Z,41.52
2023-04-13T03:34:27.858Z,43.48
2023-04-13T03:39:32.008Z,43.19
2023-04-13T03:44:35.596Z,40.97
2023-04-13T03:49:42.691Z,41.48
2023-04-13T03:54:47.549Z,40.51
2023-04-13T03:59:52.562Z,40.73
2023-04-13T04:05:06.954Z,40.30
2023-04-13T04:10:12.157Z,40.86
2023-04-13T04:15:16.384Z,39.96
2023-04-13T04:20:22.535Z,39.79
2023-04-13T04:25:28.095Z,39.50
2023-04-13T04:30:34.111Z,39.69
2023-04-13T04:35:43.590Z,39.07
2023-04-13T04:40:48.051Z,38.78
2023-04-13T04:45:52.773Z,37.78
2023-04-13T04:50:58.602Z,37.98
2023-04-13T04:56:07.848Z,37.63
2023-04-13T05:01:23.229Z,37.76
2023-04-13T05:06:36.929Z,37.45
2023-04-13T05:11:42.997Z,37.77
2023-04-13T05:16:48.427Z,37.51
2023-04-13T05:22:16.732Z,37.08
2023-04-13T05:27:27.930Z,34.99
2023-04-13T05:32:36.179Z,33.05
2023-04-13T05:37:40.783Z,32.41
2023-04-13T05:42:52.136Z,32.31
2023-04-13T05:48:02.882Z,32.22
2023-04-13T05:53:07.079Z,31.57
2023-04-13T05:58:20.429Z,31.08
2023-04-13T06:03:30.130Z,29.43
2023-04-13T06:08:33.788Z,28.66
2023-04-13T06:13:38.321Z,28.99
2023-04-13T06:18:41.854Z,27.12
2023-04-13T06:23:44.987Z,24.02
2023-04-13T06:28:58.091Z,22.97
2023-04-13T06:34:02.819Z,22.26
2023-04-13T06:39:11.877Z,21.58
2023-04-13T06:44:18.448Z,20.66
2023-04-13T06:49:29.231Z,20.29
2023-04-13T06:54:35.922Z,19.55
2023-04-13T06:59:48.238Z,18.99
2023-04-13T07:04:51.891Z,18.46
2023-04-13T07:10:00.473Z,18.39
2023-04-13T07:15:05.826Z,17.29
2023-04-13T07:20:09.785Z,17.72
2023-04-13T07:25:13.546Z,17.62
2023-04-13T07:30:17.256Z,17.36
2023-04-13T07:35:23.053Z,17.14
2023-04-13T07:40:27.929Z,16.74
2023-04-13T07:45:34.266Z,17.60
2023-04-13T07:50:45.055Z,16.59
2023-04-13T07:55:55.128Z,16.43
2023-04-13T08:01:00.838Z,16.38
2023-04-13T08:06:09.278Z,16.05
2023-04-13T08:11:13.496Z,16.25
2023-04-13T08:16:18.717Z,15.87
2023-04-13T08:21:22.474Z,15.27
2023-04-13T08:26:27.092Z,15.44
2023-04-13T08:31:32.747Z,15.49
2023-04-13T08:36:41.293Z,15.59
2023-04-13T08:41:47.719Z,16.45
2023-04-13T08:46:55.251Z,17.79
2023-04-13T08:52:07.038Z,17.50
2023-04-13T08:57:13.160Z,16.38
2023-04-13T09:02:17.347Z,15.86
2023-04-13T09:07:34.919Z,17.02
2023-04-13T09:12:44.229Z,17.80
2023-04-13T09:17:48.576Z,18.34
2023-04-13T09:22:53.744Z,18.63
2023-04-13T09:27:57.514Z,19.56
2023-04-13T09:33:11.948Z,18.43
2023-04-13T09:38:16.563Z,19.36
2023-04-13T09:43:20.928Z,19.80
2023-04-13T09:48:24.177Z,19.82
2023-04-13T09:53:29.589Z,19.61
2023-04-13T09:58:33.064Z,18.68
2023-04-13T10:03:38.467Z,18.92
2023-04-13T10:08:46.835Z,18.87
2023-04-13T10:13:58.200Z,19.64
2023-04-13T10:19:11.125Z,19.49
2023-04-13T10:24:15.496Z,19.58
2023-04-13T10:29:28.538Z,18.85
2023-04-13T10:34:44.241Z,18.81
2023-04-13T10:39:48.739Z,19.93
2023-04-13T10:44:54.425Z,19.36
2023-04-13T10:49:59.057Z,18.72
2023-04-13T10:55:03.729Z,19.10
2023-04-13T11:00:34.757Z,18.56
2023-04-13T11:05:58.024Z,18.86
2023-04-13T11:11:01.706Z,17.35
2023-04-13T11:16:07.056Z,18.43
2023-04-13T11:21:17.328Z,18.91
2023-04-13T11:26:35.802Z,19.20
2023-04-13T11:31:41.337Z,19.22
2023-04-13T11:36:49.184Z,19.77
2023-04-13T11:41:52.681Z,19.70
2023-04-13T11:46:56.981Z,19.68
2023-04-13T11:52:02.070Z,20.51
2023-04-13T11:57:06.516Z,19.41
2023-04-13T12:02:20.890Z,19.34
2023-04-13T12:07:26.641Z,18.10
2023-04-13T12:12:51.525Z,17.34
2023-04-13T12:18:08.936Z,18.38
2023-04-13T12:23:23.410Z,17.79
2023-04-13T12:28:36.386Z,18.43
2023-04-13T12:33:40.771Z,16.75
2023-04-13T12:38:44.551Z,24.40
2023-04-13T12:43:48.389Z,24.25
2023-04-13T12:48:52.855Z,23.75
2023-04-13T12:53:56.297Z,24.15
2023-04-13T12:59:01.422Z,24.89
2023-04-13T13:04:06.403Z,19.52
2023-04-13T13:09:11.064Z,19.27
2023-04-13T13:14:14.368Z,19.71
2023-04-13T13:19:18.280Z,19.15
2023-04-13T13:24:22.811Z,20.19
2023-04-13T13:29:28.220Z,20.16
2023-04-13T13:34:31.481Z,18.57
2023-04-13T13:39:34.863Z,21.10
2023-04-13T13:44:38.410Z,21.30
2023-04-13T13:49:41.575Z,20.58
2023-04-13T13:54:54.921Z,20.87
2023-04-13T13:59:59.089Z,21.73
2023-04-13T14:05:02.256Z,23.39
2023-04-13T14:10:07.661Z,22.46
2023-04-13T14:15:13.180Z,25.45
2023-04-13T14:20:16.910Z,21.86
2023-04-13T14:25:20.694Z,24.93
2023-04-13T14:30:26.275Z,21.58
2023-04-13T14:35:31.443Z,20.48
2023-04-13T14:40:36.296Z,21.35
2023-04-13T14:45:39.856Z,26.16
2023-04-13T14:50:43.507Z,26.17
2023-04-13T14:55:47.906Z,25.05
2023-04-13T15:00:51.759Z,26.79
2023-04-13T15:06:02.862Z,30.02
2023-04-13T15:11:09.293Z,28.29
2023-04-13T15:16:12.906Z,29.08
2023-04-13T15:21:17.066Z,27.44
2023-04-13T15:26:22.002Z,28.40
2023-04-13T15:31:26.071Z,29.49
2023-04-13T15:36:30.056Z,32.07
2023-04-13T15:41:33.280Z,33.47
2023-04-13T15:46:38.092Z,33.68
2023-04-13T15:51:41.580Z,29.97
2023-04-13T15:56:45.236Z,30.85
2023-04-13T16:01:50.580Z,31.61
2023-04-13T16:07:09.370Z,32.75
2023-04-13T16:12:17.876Z,32.54
2023-04-13T16:17:31.340Z,34.28
2023-04-13T16:22:35.720Z,35.89
2023-04-13T16:27:40.357Z,37.13
2023-04-13T16:32:47.331Z,38.50
2023-04-13T16:37:50.753Z,39.69
2023-04-13T16:42:55.046Z,40.65
2023-04-13T16:47:58.766Z,41.61
2023-04-13T16:53:02.956Z,42.71
2023-04-13T16:58:07.689Z,43.22
2023-04-13T17:03:11.970Z,45.23
2023-04-13T17:08:17.190Z,45.58
2023-04-13T17:13:21.455Z,46.64
2023-04-13T17:18:26.241Z,48.13
2023-04-13T17:23:31.066Z,48.85
2023-04-13T17:28:35.261Z,49.55
2023-04-13T17:33:40.205Z,50.67
2023-04-13T17:38:44.972Z,50.83
2023-04-13T17:43:49.623Z,49.50
2023-04-13T17:48:53.328Z,48.93
2023-04-13T17:53:57.232Z,48.48
2023-04-13T17:59:01.157Z,49.91
2023-04-13T18:04:06.026Z,47.22
2023-04-13T18:09:13.005Z,44.87
2023-04-13T18:14:16.752Z,47.20
2023-04-13T18:19:20.875Z,53.33
2023-04-13T18:24:25.171Z,55.22
2023-04-13T18:29:28.404Z,55.81
2023-04-13T18:34:32.206Z,56.35
2023-04-13T18:39:36.939Z,56.78
2023-04-13T18:44:40.892Z,56.62
2023-04-13T18:49:44.353Z,55.39
2023-04-13T18:54:48.508Z,56.31
2023-04-13T18:59:52.453Z,56.57
2023-04-13T19:04:56.137Z,56.60
2023-04-13T19:09:59.314Z,56.30
2023-04-13T19:15:04.167Z,56.44
2023-04-13T19:20:11.097Z,56.03
2023-04-13T19:25:17.121Z,54.49
2023-04-13T19:30:20.989Z,55.87
2023-04-13T19:35:26.647Z,55.60
2023-04-13T19:40:30.388Z,52.42
2023-04-13T19:45:35.582Z,51.96
2023-04-13T19:50:39.178Z,51.01
2023-04-13T19:55:42.664Z,48.92
2023-04-13T20:00:47.552Z,47.83
2023-04-13T20:05:51.398Z,47.53
2023-04-13T20:10:56.027Z,46.92
2023-04-13T20:16:00.418Z,46.10
2023-04-13T20:21:05.751Z,46.52
2023-04-13T20:26:08.857Z,47.50
2023-04-13T20:31:13.156Z,47.87
2023-04-13T20:36:17.035Z,49.88
2023-04-13T20:41:22.203Z,49.55
2023-04-13T20:46:35.159Z,50.51
2023-04-13T20:51:39.958Z,51.67
2023-04-13T20:56:43.102Z,51.47
2023-04-13T21:01:46.836Z,52.15
2023-04-13T21:06:50.595Z,52.76
2023-04-13T21:11:53.742Z,55.15
2023-04-13T21:16:57.498Z,58.17
2023-04-13T21:22:01.397Z,60.15
2023-04-13T21:27:04.925Z,62.12
2023-04-13T21:32:08.560Z,62.11
2023-04-13T21:37:12.359Z,63.14
2023-04-13T21:42:17.347Z,63.98
2023-04-13T21:47:21.157Z,65.44
2023-04-13T21:52:24.555Z,66.60
2023-04-13T21:57:27.665Z,67.43
2023-04-13T22:02:32.109Z,67.31
2023-04-13T22:07:42.425Z,66.91
2023-04-13T22:12:47.627Z,68.75
2023-04-13T22:17:52.016Z,70.15
2023-04-13T22:22:55.583Z,70.56
2023-04-13T22:27:59.775Z,73.03
2023-04-13T22:33:03.009Z,74.85
2023-04-13T22:38:07.096Z,74.75
2023-04-13T22:43:10.693Z,76.93
2023-04-13T22:48:14.080Z,77.19
2023-04-13T22:53:17.763Z,78.41
2023-04-13T22:58:21.308Z,80.02
2023-04-13T23:03:24.706Z,80.76
2023-04-13T23:08:29.628Z,79.78
2023-04-13T23:13:33.393Z,79.03
2023-04-13T23:18:36.949Z,78.58
2023-04-13T23:23:40.875Z,79.33
2023-04-13T23:28:44.619Z,80.55
2023-04-13T23:33:48.523Z,77.97
2023-04-13T23:38:52.209Z,54.82
2023-04-13T23:43:55.808Z,52.61
2023-04-13T23:49:00.089Z,51.56
2023-04-13T23:54:03.999Z,43.45
2023-04-13T23:59:08.252Z,42.32
